Time;durP1;ratioP1;P1;durP2;ratioP2;P2;SDS_P1;SDS_P2;PMS_P1;PMS_P2;Temp;Humidity;BMP_temperature;BMP_pressure;BME280_temperature;BME280_humidity;BME280_pressure;Samples;Min_cycle;Max_cycle;Signal;HPM_P1;HPM_P2
2022/03/30 00:00:56;;;;;;;6.47;1.83;;;6.30;93.10;;;;;;4971824;28;20464;-78
2022/03/30 00:03:22;;;;;;;9.68;1.90;;;6.30;93.30;;;;;;4967667;28;20122;-79
2022/03/30 00:05:48;;;;;;;9.25;1.58;;;6.30;93.50;;;;;;4967273;28;20391;-80
2022/03/30 00:08:14;;;;;;;12.82;2.33;;;6.30;93.60;;;;;;4984061;28;20182;-80
2022/03/30 00:10:41;;;;;;;9.40;1.95;;;6.30;93.70;;;;;;4983575;28;20141;-79
2022/03/30 00:13:08;;;;;;;11.35;2.78;;;6.30;93.90;;;;;;4969244;28;20031;-79
2022/03/30 00:15:34;;;;;;;5.93;1.40;;;6.30;94.00;;;;;;4972037;28;20027;-79
2022/03/30 00:18:00;;;;;;;9.15;1.67;;;6.30;94.30;;;;;;4971335;28;20660;-79
2022/03/30 00:20:25;;;;;;;4.65;1.73;;;6.30;94.40;;;;;;4972439;28;20034;-79
2022/03/30 00:22:51;;;;;;;7.38;1.75;;;6.30;94.50;;;;;;4987723;28;20031;-79
2022/03/30 00:25:17;;;;;;;9.70;2.22;;;6.30;94.60;;;;;;4991829;28;20042;-79
2022/03/30 00:27:46;;;;;;;7.30;1.63;;;6.30;94.80;;;;;;4957284;28;20031;-79
2022/03/30 00:30:14;;;;;;;5.45;1.83;;;6.30;94.80;;;;;;4973805;28;20101;-79
2022/03/30 00:32:39;;;;;;;7.30;1.77;;;6.20;95.00;;;;;;4992944;28;20053;-80
2022/03/30 00:35:07;;;;;;;7.47;1.80;;;6.20;95.20;;;;;;4980744;28;20034;-78
2022/03/30 00:37:34;;;;;;;8.48;1.63;;;6.20;95.40;;;;;;4981322;28;20035;-80
2022/03/30 00:40:00;;;;;;;10.60;1.77;;;6.20;95.50;;;;;;4994989;28;20036;-79
2022/03/30 00:42:26;;;;;;;7.07;1.80;;;6.20;95.50;;;;;;4979454;28;20034;-78
2022/03/30 00:44:53;;;;;;;8.80;1.83;;;6.20;95.70;;;;;;5000017;28;20045;-78
2022/03/30 00:47:25;;;;;;;7.35;2.20;;;6.20;95.80;;;;;;4974572;28;20022;-78
2022/03/30 00:49:51;;;;;;;7.25;1.58;;;6.10;96.10;;;;;;4975241;28;20030;-78
2022/03/30 00:52:18;;;;;;;10.48;2.75;;;6.00;96.30;;;;;;4976859;28;20034;-79
2022/03/30 00:54:45;;;;;;;6.22;2.00;;;6.00;96.50;;;;;;4992001;28;20042;-78
2022/03/30 00:57:14;;;;;;;8.23;1.75;;;6.00;96.70;;;;;;4966246;28;20022;-78
2022/03/30 00:59:41;;;;;;;10.52;2.03;;;6.00;96.80;;;;;;4976281;28;20038;-79
2022/03/30 01:02:07;;;;;;;10.20;1.92;;;6.00;96.90;;;;;;4969036;28;20061;-78
2022/03/30 01:04:33;;;;;;;4.95;1.45;;;6.00;97.10;;;;;;4970287;28;20046;-78
2022/03/30 01:06:59;;;;;;;6.65;1.60;;;6.00;97.30;;;;;;4978430;28;20053;-80
2022/03/30 01:09:25;;;;;;;5.30;1.52;;;5.90;97.50;;;;;;4985107;28;20038;-79
2022/03/30 01:11:55;;;;;;;8.52;1.73;;;6.00;97.70;;;;;;4969590;28;20038;-79
2022/03/30 01:14:22;;;;;;;9.30;2.55;;;6.00;97.80;;;;;;4972349;28;20034;-79
2022/03/30 01:16:49;;;;;;;10.10;2.00;;;6.00;97.80;;;;;;4986674;28;20102;-79
2022/03/30 01:19:15;;;;;;;5.43;1.85;;;6.00;98.00;;;;;;4969993;28;20437;-79
2022/03/30 01:21:43;;;;;;;7.95;1.75;;;6.00;98.10;;;;;;4970264;28;20026;-79
2022/03/30 01:24:11;;;;;;;8.50;1.70;;;6.10;98.20;;;;;;4969348;28;20030;-79
2022/03/30 01:26:37;;;;;;;11.60;2.08;;;6.10;98.20;;;;;;4987296;28;20028;-78
2022/03/30 01:32:25;;;;;;;4.32;1.38;;;6.10;98.40;;;;;;4985489;28;20027;-79
2022/03/30 01:34:36;;;;;;;6.35;1.40;;;6.00;98.70;;;;;;4969675;28;20073;-79
2022/03/30 01:37:03;;;;;;;7.22;1.75;;;6.00;98.90;;;;;;4968246;28;20026;-79
2022/03/30 01:39:29;;;;;;;6.22;1.50;;;6.00;98.90;;;;;;4983623;28;20442;-79
2022/03/30 01:41:55;;;;;;;9.20;1.73;;;6.10;99.10;;;;;;4967698;28;20037;-78
2022/03/30 01:44:21;;;;;;;5.35;1.25;;;6.10;99.20;;;;;;4968065;28;20039;-78
2022/03/30 01:46:46;;;;;;;6.35;1.77;;;6.10;99.40;;;;;;4988017;28;20027;-79
2022/03/30 01:49:12;;;;;;;5.32;1.30;;;6.10;99.50;;;;;;4984014;28;20073;-78
2022/03/30 01:51:38;;;;;;;4.35;1.30;;;6.10;99.50;;;;;;4972758;28;20039;-80
2022/03/30 01:54:04;;;;;;;5.90;1.45;;;6.00;99.60;;;;;;4974044;28;20073;-80
2022/03/30 01:56:29;;;;;;;4.45;1.10;;;6.10;99.80;;;;;;4976924;28;20034;-79
2022/03/30 01:58:55;;;;;;;9.98;1.48;;;6.10;99.80;;;;;;4986730;28;20410;-79
2022/03/30 02:01:21;;;;;;;9.27;1.55;;;6.10;99.90;;;;;;4986961;28;20058;-80
2022/03/30 02:03:47;;;;;;;9.75;2.03;;;6.10;99.90;;;;;;4985997;28;20042;-79
2022/03/30 02:06:14;;;;;;;7.82;1.45;;;6.10;99.90;;;;;;4970536;28;20034;-79
2022/03/30 02:08:40;;;;;;;6.97;1.55;;;6.10;99.90;;;;;;4986213;28;20022;-80
2022/03/30 02:11:06;;;;;;;5.82;1.75;;;6.10;99.90;;;;;;4968702;28;20081;-79
2022/03/30 02:13:32;;;;;;;4.78;1.30;;;6.10;99.90;;;;;;4968318;28;20035;-78
2022/03/30 02:15:57;;;;;;;9.20;1.92;;;6.00;99.90;;;;;;4958826;28;20611;-79
2022/03/30 02:18:24;;;;;;;5.85;2.05;;;6.00;99.90;;;;;;4989787;28;20494;-79
2022/03/30 02:20:50;;;;;;;5.63;1.33;;;6.00;99.90;;;;;;4983924;28;20046;-78
2022/03/30 02:23:15;;;;;;;6.30;1.50;;;6.10;99.90;;;;;;4966284;28;20030;-78
2022/03/30 02:25:41;;;;;;;5.05;1.42;;;6.00;99.90;;;;;;4983550;28;20026;-79
2022/03/30 02:28:07;;;;;;;9.55;1.42;;;6.00;99.90;;;;;;4984878;28;20369;-79
2022/03/30 02:30:32;;;;;;;8.43;1.50;;;5.90;99.90;;;;;;4952058;28;20033;-79
2022/03/30 02:32:58;;;;;;;9.65;2.00;;;5.90;99.90;;;;;;4968549;28;20510;-79
2022/03/30 02:35:24;;;;;;;3.72;1.25;;;5.90;99.90;;;;;;4966015;28;20034;-79
2022/03/30 02:37:54;;;;;;;8.77;1.63;;;5.90;99.90;;;;;;4976660;28;20038;-79
2022/03/30 02:40:20;;;;;;;5.50;1.50;;;5.90;99.90;;;;;;4956986;28;20117;-79
2022/03/30 02:42:46;;;;;;;8.00;1.60;;;5.90;99.90;;;;;;4988639;28;20761;-79
2022/03/30 02:45:12;;;;;;;7.18;1.67;;;5.90;99.90;;;;;;4971708;28;20023;-79
2022/03/30 02:50:23;;;;;;;7.82;1.70;;;5.80;99.90;;;;;;4990477;28;20098;-79
2022/03/30 02:52:49;;;;;;;5.25;1.63;;;5.80;99.90;;;;;;4974735;28;20030;-79
2022/03/30 02:55:15;;;;;;;7.13;1.45;;;5.80;99.90;;;;;;4974334;28;20113;-79
2022/03/30 02:57:40;;;;;;;7.13;1.48;;;5.80;99.90;;;;;;4955569;28;20034;-79
2022/03/30 03:00:07;;;;;;;7.60;2.15;;;5.80;99.90;;;;;;4959077;28;20023;-78
2022/03/30 03:02:34;;;;;;;7.72;1.35;;;5.80;99.90;;;;;;4988790;28;20406;-79
2022/03/30 03:05:00;;;;;;;8.25;1.70;;;5.70;99.90;;;;;;4983449;28;20032;-79
2022/03/30 03:07:27;;;;;;;6.18;1.77;;;5.80;99.90;;;;;;4998068;28;20061;-78
2022/03/30 03:09:53;;;;;;;6.70;2.00;;;5.80;99.90;;;;;;4961423;28;20035;-80
2022/03/30 03:12:19;;;;;;;7.80;2.00;;;5.80;99.90;;;;;;4978064;28;20022;-79
2022/03/30 03:14:45;;;;;;;6.75;1.40;;;5.90;99.90;;;;;;4973556;28;20133;-80
2022/03/30 03:17:11;;;;;;;8.32;1.35;;;5.80;99.90;;;;;;4954391;28;20550;-80
2022/03/30 03:19:37;;;;;;;4.93;1.20;;;5.80;99.90;;;;;;4987023;28;20030;-80
2022/03/30 03:22:04;;;;;;;5.95;1.20;;;5.80;99.90;;;;;;4988478;28;20031;-79
2022/03/30 03:24:29;;;;;;;4.72;1.65;;;5.80;99.90;;;;;;4987350;28;20541;-79
2022/03/30 03:26:55;;;;;;;7.85;1.00;;;5.70;99.90;;;;;;4969322;28;20157;-80
2022/03/30 03:29:21;;;;;;;8.60;1.75;;;5.70;99.90;;;;;;4966413;28;20034;-78
2022/03/30 03:31:47;;;;;;;6.78;1.52;;;5.70;99.90;;;;;;4982004;28;20037;-80
2022/03/30 03:34:12;;;;;;;5.88;1.40;;;5.70;99.90;;;;;;4985674;28;20506;-79
2022/03/30 03:36:38;;;;;;;11.65;1.50;;;5.70;99.90;;;;;;4965886;28;20037;-79
2022/03/30 03:39:04;;;;;;;4.93;1.17;;;5.70;99.90;;;;;;4968857;28;20527;-79
2022/03/30 03:41:30;;;;;;;7.43;1.17;;;5.70;99.90;;;;;;4980075;28;20506;-79
2022/03/30 03:43:56;;;;;;;7.07;1.30;;;5.70;99.90;;;;;;4985271;28;20038;-80
2022/03/30 03:46:22;;;;;;;9.55;1.67;;;5.60;99.90;;;;;;4972233;28;20565;-78
2022/03/30 03:48:48;;;;;;;4.85;1.40;;;5.60;99.90;;;;;;4970615;28;20032;-78
2022/03/30 03:51:13;;;;;;;8.65;1.20;;;5.60;99.90;;;;;;4957379;28;20109;-78
2022/03/30 03:53:39;;;;;;;6.95;1.60;;;5.50;99.90;;;;;;4975241;28;20018;-79
2022/03/30 03:56:05;;;;;;;7.07;2.53;;;5.50;99.90;;;;;;4973924;28;20022;-79
2022/03/30 03:58:31;;;;;;;6.60;1.20;;;5.50;99.90;;;;;;4989458;28;20022;-79
2022/03/30 04:00:57;;;;;;;3.28;0.77;;;5.40;99.90;;;;;;4973133;28;20110;-79
2022/03/30 04:03:22;;;;;;;4.13;0.90;;;5.40;99.90;;;;;;4993576;28;20387;-78
2022/03/30 04:05:48;;;;;;;2.83;0.95;;;5.40;99.90;;;;;;4974304;28;20074;-78
2022/03/30 04:08:15;;;;;;;6.63;1.10;;;5.30;99.90;;;;;;4971295;28;20474;-80
2022/03/30 04:10:41;;;;;;;7.13;1.27;;;5.30;99.90;;;;;;4991718;28;20041;-79
2022/03/30 04:13:07;;;;;;;10.27;1.48;;;5.30;99.90;;;;;;4972453;28;20109;-79
2022/03/30 04:15:34;;;;;;;4.13;1.23;;;5.30;99.90;;;;;;4991325;28;20542;-79
2022/03/30 04:18:00;;;;;;;7.28;1.25;;;5.30;99.90;;;;;;4972717;28;20100;-78
2022/03/30 04:20:26;;;;;;;6.43;1.30;;;5.30;99.90;;;;;;4980296;28;20030;-79
2022/03/30 04:22:52;;;;;;;3.42;0.82;;;5.30;99.90;;;;;;5004073;28;20027;-78
2022/03/30 04:25:18;;;;;;;3.83;0.88;;;5.30;99.90;;;;;;4988302;28;20399;-78
2022/03/30 04:27:46;;;;;;;4.13;1.13;;;5.30;99.90;;;;;;4972665;28;20026;-78
2022/03/30 04:30:12;;;;;;;6.55;1.23;;;5.30;99.90;;;;;;4971294;28;20042;-78
2022/03/30 04:32:37;;;;;;;3.45;1.00;;;5.30;99.90;;;;;;4971672;28;20037;-78
2022/03/30 04:35:03;;;;;;;8.90;1.17;;;5.30;99.90;;;;;;4975021;28;20427;-79
2022/03/30 04:37:29;;;;;;;4.13;0.88;;;5.30;99.90;;;;;;4989083;28;20018;-79
2022/03/30 04:39:55;;;;;;;9.25;1.20;;;5.30;99.90;;;;;;4990987;28;20042;-78
2022/03/30 04:42:20;;;;;;;5.68;1.20;;;5.30;99.90;;;;;;4989714;28;20037;-79
2022/03/30 04:44:47;;;;;;;3.45;1.02;;;5.30;99.90;;;;;;4987886;28;20031;-78
2022/03/30 04:47:13;;;;;;;7.70;1.60;;;5.30;99.90;;;;;;4990236;28;20028;-79
2022/03/30 04:49:39;;;;;;;3.47;1.02;;;5.30;99.90;;;;;;4987931;28;20046;-78
2022/03/30 04:52:05;;;;;;;5.75;1.17;;;5.20;99.90;;;;;;4969180;28;20037;-78
2022/03/30 04:54:30;;;;;;;6.00;1.10;;;5.20;99.90;;;;;;4990878;28;20193;-79
2022/03/30 04:56:56;;;;;;;7.75;1.20;;;5.20;99.90;;;;;;4970432;28;20034;-79
2022/03/30 04:59:22;;;;;;;7.25;1.17;;;5.20;99.90;;;;;;4967693;28;20446;-79
2022/03/30 05:01:47;;;;;;;6.82;1.50;;;5.20;99.90;;;;;;4982856;28;20034;-79
2022/03/30 05:04:13;;;;;;;6.38;0.93;;;5.20;99.90;;;;;;4967058;28;20038;-80
2022/03/30 05:06:39;;;;;;;6.40;1.45;;;5.20;99.90;;;;;;4969708;28;20069;-80
2022/03/30 05:09:04;;;;;;;4.72;1.05;;;5.10;99.90;;;;;;4975867;28;20034;-79
2022/03/30 05:11:31;;;;;;;7.82;1.20;;;5.20;99.90;;;;;;4969735;28;20036;-80
2022/03/30 05:13:57;;;;;;;3.58;0.82;;;5.20;99.90;;;;;;4988518;28;20034;-80
2022/03/30 05:16:23;;;;;;;5.47;1.20;;;5.20;99.90;;;;;;4968188;28;20038;-80
2022/03/30 05:18:48;;;;;;;9.68;1.60;;;5.20;99.90;;;;;;4968065;28;20101;-80
2022/03/30 05:21:14;;;;;;;6.60;1.20;;;5.20;99.90;;;;;;4966333;28;20023;-80
2022/03/30 05:23:41;;;;;;;4.85;1.08;;;5.20;99.90;;;;;;4967563;28;20033;-78
2022/03/30 05:26:08;;;;;;;3.42;1.17;;;5.20;99.90;;;;;;4954785;28;20033;-79
2022/03/30 05:28:38;;;;;;;6.55;1.83;;;5.20;99.90;;;;;;4970173;28;20046;-80
2022/03/30 05:31:05;;;;;;;4.28;0.93;;;5.20;99.90;;;;;;4986501;28;20050;-78
2022/03/30 05:33:30;;;;;;;7.82;1.33;;;5.20;99.90;;;;;;4968241;28;20089;-77
2022/03/30 05:35:56;;;;;;;6.85;1.00;;;5.20;99.90;;;;;;4983541;28;20031;-78
2022/03/30 05:38:22;;;;;;;5.28;0.90;;;5.20;99.90;;;;;;4984359;28;20030;-78
2022/03/30 05:40:47;;;;;;;5.10;1.00;;;5.20;99.90;;;;;;4978714;28;20450;-79
2022/03/30 05:43:13;;;;;;;5.57;1.38;;;5.20;99.90;;;;;;4967338;28;20026;-78
2022/03/30 05:45:39;;;;;;;4.90;1.90;;;5.30;99.90;;;;;;4965958;28;20041;-78
2022/03/30 05:48:04;;;;;;;3.42;1.23;;;5.20;99.90;;;;;;4981571;28;20113;-78
2022/03/30 05:50:30;;;;;;;6.45;1.25;;;5.30;99.90;;;;;;4966630;28;20026;-77
2022/03/30 05:52:57;;;;;;;9.02;1.50;;;5.30;99.90;;;;;;4966225;28;20027;-78
2022/03/30 05:55:22;;;;;;;4.43;1.20;;;5.30;99.90;;;;;;4965639;28;20457;-78
2022/03/30 05:57:48;;;;;;;7.25;1.00;;;5.30;99.90;;;;;;4963894;28;20112;-78
2022/03/30 06:00:14;;;;;;;5.25;1.50;;;5.20;99.90;;;;;;4965297;28;20037;-77
2022/03/30 06:02:40;;;;;;;6.15;1.92;;;5.20;99.90;;;;;;4983678;28;20572;-78
2022/03/30 06:05:06;;;;;;;3.92;1.33;;;5.20;99.90;;;;;;4973833;28;20441;-78
2022/03/30 06:07:32;;;;;;;4.40;1.33;;;5.20;99.90;;;;;;4983250;28;20037;-78
2022/03/30 06:10:00;;;;;;;5.15;1.05;;;5.20;99.90;;;;;;4981789;28;20038;-77
2022/03/30 06:12:25;;;;;;;3.38;1.40;;;5.20;99.90;;;;;;4987202;28;20498;-76
2022/03/30 06:14:52;;;;;;;5.13;1.25;;;5.20;99.90;;;;;;4967363;28;20044;-77
2022/03/30 06:17:19;;;;;;;4.53;1.20;;;5.20;99.90;;;;;;4949424;28;20038;-77
2022/03/30 06:19:50;;;;;;;6.55;1.40;;;5.10;99.90;;;;;;4983659;28;20042;-78
2022/03/30 06:22:16;;;;;;;5.47;1.95;;;5.10;99.90;;;;;;4982883;28;20090;-79
2022/03/30 06:24:45;;;;;;;8.52;1.85;;;5.10;99.90;;;;;;4967271;28;20033;-77
2022/03/30 06:27:12;;;;;;;4.43;1.25;;;5.10;99.90;;;;;;4970686;28;20098;-79
2022/03/30 06:29:41;;;;;;;3.70;1.33;;;5.10;99.90;;;;;;4964375;28;20031;-78
2022/03/30 06:32:08;;;;;;;4.78;1.77;;;5.10;99.90;;;;;;4968314;28;20022;-78
2022/03/30 06:34:35;;;;;;;6.88;1.45;;;5.20;99.90;;;;;;4963294;28;20141;-77
2022/03/30 06:37:01;;;;;;;3.70;1.35;;;5.20;99.90;;;;;;4963432;28;20034;-77
2022/03/30 06:39:26;;;;;;;4.57;1.20;;;5.20;99.90;;;;;;4980576;28;20041;-77
2022/03/30 06:41:52;;;;;;;8.35;1.60;;;5.20;99.90;;;;;;4987285;28;20030;-79
2022/03/30 06:44:19;;;;;;;6.43;1.50;;;5.20;99.90;;;;;;4966707;28;20058;-78
2022/03/30 06:46:46;;;;;;;5.40;1.48;;;5.20;99.90;;;;;;4964041;28;20034;-78
2022/03/30 06:49:12;;;;;;;4.57;1.25;;;5.20;99.90;;;;;;4965342;28;20154;-79
2022/03/30 06:51:37;;;;;;;6.80;1.35;;;5.30;99.90;;;;;;4967904;28;20410;-77
2022/03/30 06:54:04;;;;;;;7.32;1.45;;;5.20;99.90;;;;;;4980406;28;20371;-78
2022/03/30 06:56:31;;;;;;;5.65;1.30;;;5.30;99.90;;;;;;4964769;28;20054;-79
2022/03/30 06:58:57;;;;;;;5.85;1.58;;;5.30;99.90;;;;;;4982222;28;20141;-78
2022/03/30 07:01:23;;;;;;;5.22;1.67;;;5.30;99.90;;;;;;4951178;28;20054;-79
2022/03/30 07:03:50;;;;;;;6.90;1.65;;;5.40;99.90;;;;;;4967495;28;20061;-79
2022/03/30 07:06:17;;;;;;;4.88;1.50;;;5.40;99.90;;;;;;4966628;28;20379;-79
2022/03/30 07:11:28;;;;;;;4.47;1.20;;;5.60;99.90;;;;;;4983925;28;20033;-79
2022/03/30 07:13:56;;;;;;;2.92;1.80;;;5.50;99.90;;;;;;4985144;28;20077;-80
2022/03/30 07:16:23;;;;;;;5.97;1.92;;;5.50;99.90;;;;;;4978449;28;20025;-79
2022/03/30 07:18:50;;;;;;;1.42;1.00;;;5.60;99.90;;;;;;4981860;28;20054;-79
2022/03/30 07:21:16;;;;;;;2.00;1.05;;;5.70;99.90;;;;;;4982387;28;20256;-80
2022/03/30 07:23:42;;;;;;;4.38;1.20;;;5.70;99.90;;;;;;4984198;28;20023;-79
2022/03/30 07:26:08;;;;;;;2.85;0.90;;;5.70;99.90;;;;;;4999821;28;20584;-79
2022/03/30 07:28:37;;;;;;;2.38;0.80;;;5.70;99.90;;;;;;4992462;28;20095;-79
2022/03/30 07:31:03;;;;;;;3.28;1.42;;;5.70;99.90;;;;;;4980557;28;20133;-79
2022/03/30 07:33:29;;;;;;;4.25;1.10;;;5.70;99.90;;;;;;4985106;28;20031;-79
2022/03/30 07:35:55;;;;;;;3.53;1.00;;;5.70;99.90;;;;;;4981173;28;20037;-79
2022/03/30 07:38:21;;;;;;;3.00;0.75;;;5.70;99.90;;;;;;4997608;28;20026;-79
2022/03/30 07:40:49;;;;;;;4.40;1.10;;;5.70;99.90;;;;;;4976588;28;20597;-79
2022/03/30 07:43:16;;;;;;;1.85;0.90;;;5.80;99.90;;;;;;4986294;28;20041;-79
2022/03/30 07:45:42;;;;;;;4.07;1.25;;;5.90;99.90;;;;;;4954958;28;20079;-79
2022/03/30 07:48:14;;;;;;;4.60;1.25;;;6.00;99.90;;;;;;4989163;28;20381;-79
2022/03/30 07:50:40;;;;;;;4.25;1.33;;;6.10;99.90;;;;;;4968937;28;20481;-75
2022/03/30 07:53:08;;;;;;;3.13;1.40;;;6.10;99.90;;;;;;4982981;28;20042;-79
2022/03/30 07:55:35;;;;;;;1.92;0.80;;;6.10;99.90;;;;;;4967074;28;20035;-79
2022/03/30 07:58:01;;;;;;;4.18;1.15;;;6.20;99.90;;;;;;4965860;28;20027;-79
2022/03/30 08:00:27;;;;;;;4.50;1.15;;;6.20;99.90;;;;;;4982735;28;20031;-79
2022/03/30 08:02:52;;;;;;;5.55;1.42;;;6.30;99.90;;;;;;4979978;28;20114;-77
2022/03/30 08:05:18;;;;;;;3.50;1.10;;;6.30;99.90;;;;;;4981688;28;20610;-79
2022/03/30 08:07:46;;;;;;;3.70;1.25;;;6.30;99.90;;;;;;4966642;28;20057;-78
2022/03/30 08:10:12;;;;;;;2.75;1.08;;;6.30;99.90;;;;;;4966797;28;20038;-79
2022/03/30 08:12:40;;;;;;;3.35;1.20;;;6.40;99.90;;;;;;4982968;28;20039;-79
2022/03/30 08:15:07;;;;;;;3.28;1.38;;;6.50;99.90;;;;;;4966683;28;20113;-79
2022/03/30 08:17:32;;;;;;;2.22;1.10;;;6.40;99.90;;;;;;4983695;28;20030;-78
2022/03/30 08:19:59;;;;;;;3.17;1.25;;;6.50;99.90;;;;;;4983479;28;20050;-80
2022/03/30 08:22:28;;;;;;;3.40;1.23;;;6.40;99.90;;;;;;4983498;28;20372;-79
2022/03/30 08:25:07;;;;;;;5.97;1.48;;;6.40;99.90;;;;;;4948695;28;20042;-79
2022/03/30 08:27:34;;;;;;;4.43;1.58;;;6.40;99.90;;;;;;4965688;28;20022;-79
2022/03/30 08:30:01;;;;;;;7.25;1.35;;;6.40;99.90;;;;;;4964668;28;20035;-79
2022/03/30 08:32:27;;;;;;;4.68;1.58;;;6.40;99.90;;;;;;4964493;28;20434;-79
2022/03/30 08:34:55;;;;;;;4.03;1.60;;;6.40;99.90;;;;;;4976340;28;20034;-80
2022/03/30 08:37:21;;;;;;;4.20;1.10;;;6.40;99.90;;;;;;4991407;28;20488;-80
2022/03/30 08:39:48;;;;;;;3.28;1.48;;;6.40;99.90;;;;;;4992540;28;20030;-80
2022/03/30 08:42:17;;;;;;;3.30;1.20;;;6.40;99.90;;;;;;4972955;28;20026;-79
2022/03/30 08:44:46;;;;;;;5.57;2.13;;;6.40;99.90;;;;;;4970980;28;20082;-78
2022/03/30 08:47:12;;;;;;;3.97;2.00;;;6.40;99.90;;;;;;4969925;28;20674;-79
2022/03/30 08:49:38;;;;;;;3.80;1.65;;;6.40;99.90;;;;;;4976712;28;20059;-78
2022/03/30 08:52:08;;;;;;;4.10;1.63;;;6.50;99.90;;;;;;4967834;28;20034;-79
2022/03/30 08:54:35;;;;;;;3.75;1.98;;;6.50;99.90;;;;;;4969205;28;20034;-79
2022/03/30 08:57:02;;;;;;;4.38;1.30;;;6.60;99.90;;;;;;4952835;28;20034;-79
2022/03/30 08:59:28;;;;;;;5.95;1.60;;;6.60;99.90;;;;;;4985118;28;20038;-80
2022/03/30 09:01:55;;;;;;;4.28;1.70;;;6.70;99.90;;;;;;4981427;28;20096;-78
2022/03/30 09:04:21;;;;;;;5.03;1.60;;;6.70;99.90;;;;;;4968302;28;20085;-78
2022/03/30 09:06:56;;;;;;;7.25;1.70;;;6.70;99.90;;;;;;4966164;28;20049;-81
2022/03/30 09:09:33;;;;;;;4.30;1.85;;;6.70;99.90;;;;;;4981138;28;20034;-79
2022/03/30 09:12:00;;;;;;;3.65;1.52;;;6.80;99.90;;;;;;4966090;28;20029;-78
2022/03/30 09:14:32;;;;;;;5.10;1.40;;;6.70;99.90;;;;;;4969280;28;20026;-79
2022/03/30 09:17:03;;;;;;;3.75;1.63;;;6.70;99.90;;;;;;4972240;28;20431;-79
2022/03/30 09:19:36;;;;;;;5.57;2.25;;;6.70;99.90;;;;;;4971008;28;20041;-78
2022/03/30 09:22:05;;;;;;;4.15;1.90;;;6.70;99.90;;;;;;4971116;28;20038;-79
2022/03/30 09:24:34;;;;;;;5.75;1.75;;;6.70;99.90;;;;;;4969132;28;20394;-78
2022/03/30 09:27:02;;;;;;;2.08;1.30;;;6.70;99.90;;;;;;4987950;28;20027;-79
2022/03/30 09:29:31;;;;;;;3.22;1.60;;;6.80;99.90;;;;;;4981776;28;20061;-79
2022/03/30 09:32:03;;;;;;;7.25;2.00;;;6.90;99.90;;;;;;4971606;28;20026;-78
2022/03/30 09:34:34;;;;;;;5.13;1.73;;;7.00;99.90;;;;;;4970105;28;20113;-77
2022/03/30 09:37:00;;;;;;;4.30;1.50;;;7.00;99.90;;;;;;4958031;28;20142;-80
2022/03/30 09:39:29;;;;;;;4.10;1.60;;;7.00;99.90;;;;;;4989948;28;20026;-79
2022/03/30 09:41:58;;;;;;;6.05;1.67;;;7.10;99.90;;;;;;4995414;28;20027;-79
2022/03/30 09:44:26;;;;;;;3.65;1.33;;;7.00;99.90;;;;;;4986619;28;20068;-78
2022/03/30 09:47:05;;;;;;;3.58;2.17;;;7.00;99.90;;;;;;4967846;28;20097;-78
2022/03/30 09:49:52;;;;;;;4.15;1.60;;;7.00;99.90;;;;;;4966380;28;20031;-78
2022/03/30 09:52:23;;;;;;;5.07;1.60;;;7.00;99.90;;;;;;4970929;28;20037;-79
2022/03/30 09:54:57;;;;;;;4.60;1.85;;;7.00;99.90;;;;;;4959477;28;20035;-80
2022/03/30 09:57:24;;;;;;;3.47;1.77;;;7.00;99.90;;;;;;4972408;28;20029;-79
2022/03/30 10:00:07;;;;;;;6.22;1.60;;;6.90;99.90;;;;;;4987014;28;20069;-79
2022/03/30 10:02:53;;;;;;;4.30;1.60;;;7.00;99.90;;;;;;4985402;28;20030;-79
2022/03/30 10:05:21;;;;;;;5.78;1.80;;;7.00;99.90;;;;;;4985852;28;20026;-79
2022/03/30 10:07:48;;;;;;;3.53;1.45;;;6.90;99.90;;;;;;4983486;28;20031;-79
2022/03/30 10:10:16;;;;;;;5.38;1.80;;;6.90;99.90;;;;;;4985684;28;20518;-79
2022/03/30 10:12:42;;;;;;;5.25;1.83;;;6.90;99.90;;;;;;4986320;28;20030;-80
2022/03/30 10:15:09;;;;;;;5.00;1.80;;;6.90;99.90;;;;;;4984943;28;20046;-80
2022/03/30 10:17:36;;;;;;;2.13;1.40;;;6.90;99.90;;;;;;4967889;28;20026;-80
2022/03/30 10:20:04;;;;;;;5.13;2.03;;;6.90;99.90;;;;;;4952003;28;20034;-78
2022/03/30 10:22:45;;;;;;;5.18;2.28;;;6.90;99.90;;;;;;4965754;28;20113;-80
2022/03/30 10:25:26;;;;;;;5.90;1.92;;;7.00;99.90;;;;;;4988531;28;20030;-79
2022/03/30 10:27:54;;;;;;;7.90;1.70;;;7.00;99.90;;;;;;4967191;28;20406;-78
2022/03/30 10:30:30;;;;;;;3.05;1.80;;;7.00;99.90;;;;;;4951080;28;20026;-78
2022/03/30 10:33:00;;;;;;;4.53;2.08;;;7.10;99.90;;;;;;4986676;28;20118;-78
2022/03/30 10:35:46;;;;;;;4.28;2.05;;;7.10;99.90;;;;;;4966909;28;20073;-81
2022/03/30 10:38:13;;;;;;;4.57;1.70;;;7.10;99.90;;;;;;4986631;28;20104;-79
2022/03/30 10:40:39;;;;;;;6.32;1.90;;;7.20;99.90;;;;;;4966283;28;20030;-80
2022/03/30 10:43:13;;;;;;;6.70;2.40;;;7.20;99.90;;;;;;4949449;28;20026;-79
2022/03/30 10:45:41;;;;;;;4.00;1.83;;;7.20;99.90;;;;;;4989539;28;20027;-79
2022/03/30 10:48:22;;;;;;;4.72;2.38;;;7.30;99.90;;;;;;4967179;28;20029;-79
2022/03/30 10:50:49;;;;;;;5.50;2.08;;;7.50;99.90;;;;;;4954898;28;20042;-79
2022/03/30 10:53:33;;;;;;;2.88;1.75;;;7.50;99.90;;;;;;4974439;28;20610;-79
2022/03/30 10:56:14;;;;;;;6.00;1.50;;;7.60;99.90;;;;;;4999408;28;20041;-79
2022/03/30 10:58:49;;;;;;;3.75;1.50;;;7.70;99.90;;;;;;4966700;28;20029;-78
2022/03/30 11:01:22;;;;;;;4.18;1.60;;;7.70;99.90;;;;;;4982709;28;20065;-79
2022/03/30 11:04:13;;;;;;;3.92;1.67;;;7.70;99.90;;;;;;4955783;28;20616;-79
2022/03/30 11:06:44;;;;;;;4.68;1.67;;;7.70;99.90;;;;;;4964895;28;20069;-80
2022/03/30 11:09:28;;;;;;;2.25;1.25;;;7.70;99.90;;;;;;4964903;28;20126;-81
2022/03/30 11:12:12;;;;;;;5.25;1.60;;;7.70;99.90;;;;;;4976576;28;20547;-83
2022/03/30 11:14:43;;;;;;;5.40;1.98;;;7.80;99.90;;;;;;4979680;28;20034;-80
2022/03/30 11:17:12;;;;;;;3.97;1.65;;;7.70;99.90;;;;;;4986232;28;20030;-76
2022/03/30 11:19:48;;;;;;;3.22;1.50;;;7.80;99.90;;;;;;4967528;28;20034;-79
2022/03/30 11:22:21;;;;;;;2.55;1.50;;;7.80;99.90;;;;;;4968759;28;20503;-79
2022/03/30 11:25:12;;;;;;;4.03;1.58;;;7.80;99.90;;;;;;4986220;28;20026;-79
2022/03/30 11:27:39;;;;;;;3.45;1.20;;;7.90;99.90;;;;;;4972584;28;20493;-79
2022/03/30 11:30:11;;;;;;;3.03;1.27;;;8.00;99.90;;;;;;4966838;28;20031;-79
2022/03/30 11:32:39;;;;;;;3.33;1.60;;;8.00;99.90;;;;;;4967798;28;20038;-78
2022/03/30 11:35:09;;;;;;;3.00;1.60;;;8.00;99.90;;;;;;4958108;28;20050;-80
2022/03/30 11:37:42;;;;;;;4.43;1.98;;;8.00;99.90;;;;;;4982174;28;20144;-81
2022/03/30 11:40:14;;;;;;;4.93;1.95;;;7.90;99.90;;;;;;4994074;28;20031;-81
2022/03/30 11:42:42;;;;;;;5.28;1.50;;;7.90;99.90;;;;;;4985832;28;20035;-79
2022/03/30 11:45:21;;;;;;;4.60;1.85;;;7.80;99.90;;;;;;4979268;28;20431;-79
2022/03/30 11:47:56;;;;;;;3.60;1.60;;;7.80;99.90;;;;;;4963119;28;20027;-80
2022/03/30 11:50:28;;;;;;;4.35;1.85;;;7.70;99.90;;;;;;4983263;28;20051;-81
2022/03/30 11:53:02;;;;;;;1.50;1.25;;;7.80;99.90;;;;;;4982724;28;20065;-80
2022/03/30 11:55:38;;;;;;;3.80;2.05;;;7.80;99.90;;;;;;4982845;28;20034;-81
2022/03/30 11:58:05;;;;;;;4.80;1.38;;;7.80;99.90;;;;;;4971501;28;20026;-81
2022/03/30 12:00:34;;;;;;;3.28;1.70;;;7.90;99.90;;;;;;4982517;28;20040;-80
2022/03/30 12:03:01;;;;;;;4.43;1.30;;;8.00;99.90;;;;;;4965007;28;20538;-83
2022/03/30 12:05:27;;;;;;;3.70;1.35;;;8.00;99.90;;;;;;4965058;28;20026;-81
2022/03/30 12:08:00;;;;;;;2.97;1.30;;;8.10;99.90;;;;;;4950845;28;20034;-78
2022/03/30 12:10:31;;;;;;;3.00;1.52;;;8.20;99.90;;;;;;4957759;28;20023;-80
2022/03/30 12:13:03;;;;;;;3.22;1.50;;;8.20;99.90;;;;;;4973194;28;20074;-78
2022/03/30 12:15:29;;;;;;;4.28;1.30;;;8.20;99.90;;;;;;4970729;28;20031;-78
2022/03/30 12:17:59;;;;;;;3.22;1.33;;;8.30;99.90;;;;;;4987200;28;20027;-79
2022/03/30 12:20:30;;;;;;;2.30;1.15;;;8.40;99.90;;;;;;4988037;28;20030;-81
2022/03/30 12:23:04;;;;;;;2.90;1.23;;;8.40;99.90;;;;;;4989215;28;20069;-80
2022/03/30 12:25:33;;;;;;;3.47;1.75;;;8.60;99.90;;;;;;5004616;28;20051;-83
2022/03/30 12:28:00;;;;;;;929.22;510.73;;;8.70;99.90;;;;;;4994252;28;20026;-79
2022/03/30 12:30:33;;;;;;;500.58;274.70;;;8.80;99.90;;;;;;4989260;28;20050;-79
2022/03/30 12:33:00;;;;;;;796.15;475.38;;;8.90;99.90;;;;;;4988727;28;20031;-80
2022/03/30 12:35:35;;;;;;;320.92;184.93;;;9.00;99.90;;;;;;4972779;28;20040;-79
2022/03/30 12:38:10;;;;;;;37.60;22.40;;;9.10;99.90;;;;;;4978694;28;20106;-80
2022/03/30 12:40:40;;;;;;;11.77;6.78;;;9.20;99.10;;;;;;4988767;28;20032;-80
2022/03/30 12:43:07;;;;;;;3.30;2.00;;;9.30;99.10;;;;;;4970225;28;20022;-82
2022/03/30 12:45:44;;;;;;;3.38;1.30;;;9.30;98.90;;;;;;4978410;28;20090;-80
2022/03/30 12:48:10;;;;;;;2.75;1.38;;;9.20;98.70;;;;;;4969858;28;20023;-79
2022/03/30 12:50:36;;;;;;;3.47;1.70;;;9.20;98.50;;;;;;4962562;28;20046;-82
2022/03/30 12:53:15;;;;;;;3.40;1.33;;;9.20;98.20;;;;;;4998175;28;20090;-81
2022/03/30 12:55:48;;;;;;;3.00;1.58;;;9.20;98.30;;;;;;4994553;28;20062;-80
2022/03/30 12:58:18;;;;;;;5.38;1.40;;;9.20;97.90;;;;;;4990758;28;20462;-81
2022/03/30 13:00:52;;;;;;;2.85;1.08;;;9.30;97.80;;;;;;4989049;28;20077;-79
2022/03/30 13:03:19;;;;;;;3.10;1.63;;;9.40;97.60;;;;;;4989747;28;20035;-79
2022/03/30 13:05:47;;;;;;;3.08;1.38;;;9.40;97.20;;;;;;4984064;28;20044;-80
2022/03/30 13:08:18;;;;;;;3.25;1.42;;;9.50;96.70;;;;;;4969748;28;20026;-80